Time;durP1;ratioP1;P1;durP2;ratioP2;P2;SDS_P1;SDS_P2;PMS_P1;PMS_P2;Temp;Humidity;BMP_temperature;BMP_pressure;BME280_temperature;BME280_humidity;BME280_pressure;Samples;Min_cycle;Max_cycle;Signal;HPM_P1;HPM_P2
2021/12/20 00:00:20;;;;;;;57.40;34.30;;;;;;;-1.14;100.00;99955.97;4990965;28;20442;-86
2021/12/20 00:06:35;;;;;;;59.47;32.15;;;;;;;-1.09;100.00;99954.03;5140862;23;20064;-91
2021/12/20 00:09:32;;;;;;;61.63;34.13;;;;;;;-1.07;100.00;99957.41;5008163;28;20037;-88
2021/12/20 00:11:58;;;;;;;63.97;34.58;;;;;;;-1.10;100.00;99953.19;5054067;28;20338;-90
2021/12/20 00:14:32;;;;;;;64.20;35.47;;;;;;;-1.07;100.00;99957.41;5018708;28;20025;-88
2021/12/20 00:16:58;;;;;;;67.38;36.42;;;;;;;-1.09;100.00;99948.84;5054067;28;20028;-86
2021/12/20 00:20:01;;;;;;;69.05;34.90;;;;;;;-1.14;100.00;99940.44;5055853;28;20033;-85
2021/12/20 00:22:27;;;;;;;60.15;33.67;;;;;;;-1.12;100.00;99943.81;5035501;28;20611;-87
2021/12/20 00:24:53;;;;;;;64.90;35.38;;;;;;;-1.11;100.00;99935.13;5036342;28;20022;-89
2021/12/20 00:27:19;;;;;;;66.57;36.90;;;;;;;-1.11;100.00;99935.13;5054774;28;20110;-88
2021/12/20 00:29:50;;;;;;;70.65;38.50;;;;;;;-1.16;100.00;99930.13;5033120;28;20029;-88
2021/12/20 00:32:17;;;;;;;62.67;39.17;;;;;;;-1.21;100.00;99923.44;5036342;28;20052;-88
2021/12/20 00:34:43;;;;;;;67.47;35.85;;;;;;;-1.22;100.00;99922.59;5052244;28;20021;-89
2021/12/20 00:42:37;;;;;;;65.28;37.03;;;;;;;-1.27;100.00;99924.53;5039740;28;20030;-88
2021/12/20 00:45:04;;;;;;;69.07;37.65;;;;;;;-1.27;100.00;99920.19;5028746;28;20706;-90
2021/12/20 00:47:29;;;;;;;72.28;38.20;;;;;;;-1.29;100.00;99911.63;5063648;28;20035;-89
2021/12/20 00:49:55;;;;;;;68.05;37.65;;;;;;;-1.28;100.00;99913.31;5038879;28;20013;-88
2021/12/20 00:52:20;;;;;;;70.80;37.75;;;;;;;-1.27;100.00;99909.84;5055759;28;20013;-89
2021/12/20 00:54:46;;;;;;;65.70;36.50;;;;;;;-1.24;100.00;99904.53;5040388;28;20026;-89
2021/12/20 00:57:11;;;;;;;67.55;37.67;;;;;;;-1.19;100.00;99916.47;5039318;28;20018;-88
2021/12/20 00:59:37;;;;;;;66.10;36.95;;;;;;;-1.29;100.00;99901.28;5072623;28;20088;-88
2021/12/20 01:02:03;;;;;;;71.38;38.22;;;;;;;-1.31;100.00;99903.09;5059866;28;20064;-87
2021/12/20 01:04:28;;;;;;;71.07;38.10;;;;;;;-1.31;100.00;99903.09;5077784;28;20044;-88
2021/12/20 01:06:54;;;;;;;70.78;38.85;;;;;;;-1.30;100.00;99907.38;5042204;28;20132;-89
2021/12/20 01:09:19;;;;;;;60.45;37.08;;;;;;;-1.29;100.00;99906.47;5059166;28;20108;-89
2021/12/20 01:11:50;;;;;;;67.35;39.08;;;;;;;-1.32;100.00;99887.63;5043544;28;20037;-88
2021/12/20 01:14:22;;;;;;;64.28;39.08;;;;;;;-1.37;100.00;99890.41;5057254;28;20144;-89
2021/12/20 01:16:49;;;;;;;66.10;38.72;;;;;;;-1.47;100.00;99896.81;5072865;28;20037;-89
2021/12/20 01:19:14;;;;;;;66.95;36.88;;;;;;;-1.50;100.00;99896.94;5073420;28;20103;-89
2021/12/20 01:21:40;;;;;;;63.58;36.63;;;;;;;-1.55;100.00;99898.88;5073360;28;20132;-88
2021/12/20 01:24:05;;;;;;;66.32;38.65;;;;;;;-1.60;100.00;99885.28;5072187;28;20036;-88
2021/12/20 01:26:31;;;;;;;70.95;39.25;;;;;;;-1.59;100.00;99876.59;5035275;28;20372;-88
2021/12/20 01:28:56;;;;;;;68.28;38.28;;;;;;;-1.55;100.00;99880.75;5048844;28;20118;-89
2021/12/20 01:31:22;;;;;;;69.15;37.00;;;;;;;-1.49;100.00;99888.28;5045403;28;20545;-88
2021/12/20 01:33:48;;;;;;;67.43;38.97;;;;;;;-1.44;100.00;99881.19;5038031;28;20029;-89
2021/12/20 01:36:14;;;;;;;69.05;39.20;;;;;;;-1.41;100.00;99875.88;5018619;28;20071;-89
2021/12/20 01:38:40;;;;;;;75.82;39.25;;;;;;;-1.38;100.00;99870.59;5050534;28;20041;-89
2021/12/20 01:41:08;;;;;;;64.50;37.67;;;;;;;-1.34;100.00;99872.16;5009811;28;20127;-89
2021/12/20 01:43:34;;;;;;;66.63;36.22;;;;;;;-1.36;100.00;99878.31;5008433;28;20052;-89
2021/12/20 01:46:00;;;;;;;67.30;37.85;;;;;;;-1.37;100.00;99869.69;5028710;28;20090;-89
2021/12/20 01:48:26;;;;;;;69.85;36.20;;;;;;;-1.36;100.00;99868.78;5028041;28;20539;-89
2021/12/20 01:53:27;;;;;;;61.25;35.25;;;;;;;-1.35;100.00;99875.63;5042860;28;20033;-89
2021/12/20 01:55:55;;;;;;;58.78;34.25;;;;;;;-1.35;100.00;99869.59;5011959;28;20025;-88
2021/12/20 01:58:22;;;;;;;65.07;36.17;;;;;;;-1.36;100.00;99866.19;5017658;28;20041;-88
2021/12/20 02:01:18;;;;;;;65.30;34.58;;;;;;;-1.34;100.00;99861.78;5019749;28;20029;-89
2021/12/20 02:03:48;;;;;;;63.13;34.72;;;;;;;-1.39;100.00;99866.31;5037170;28;20025;-89
2021/12/20 02:06:29;;;;;;;58.60;35.00;;;;;;;-1.37;100.00;99856.75;5051781;28;20033;-87
2021/12/20 02:08:57;;;;;;;65.63;35.85;;;;;;;-1.41;100.00;99854.31;5051692;28;20055;-89
2021/12/20 02:11:23;;;;;;;59.30;33.85;;;;;;;-1.56;100.00;99848.00;5059980;28;20041;-89
2021/12/20 02:13:48;;;;;;;62.63;35.08;;;;;;;-1.60;100.00;99849.03;5055135;28;20085;-87
2021/12/20 02:16:14;;;;;;;60.78;35.72;;;;;;;-1.65;100.00;99845.78;5036071;28;20103;-88
2021/12/20 02:18:40;;;;;;;71.38;38.33;;;;;;;-1.65;100.00;99835.44;5034108;28;20437;-88
2021/12/20 02:21:05;;;;;;;65.30;36.58;;;;;;;-1.72;100.00;99834.00;5049979;28;20113;-88
2021/12/20 02:23:31;;;;;;;71.90;37.35;;;;;;;-1.74;100.00;99835.78;5006280;28;20028;-89
2021/12/20 02:25:59;;;;;;;68.05;36.95;;;;;;;-1.70;100.00;99832.16;5027600;28;20090;-89
2021/12/20 02:28:25;;;;;;;72.13;37.58;;;;;;;-1.67;100.00;99829.47;5025759;28;20770;-87
2021/12/20 02:38:50;;;;;;;63.20;36.28;;;;;;;-1.87;100.00;99813.88;5032015;28;20022;-89
2021/12/20 02:41:20;;;;;;;64.00;37.45;;;;;;;-1.88;100.00;99812.19;5014652;28;20040;-89
2021/12/20 02:43:54;;;;;;;77.07;38.97;;;;;;;-1.83;100.00;99805.13;5032120;28;20034;-89
2021/12/20 02:49:06;;;;;;;66.82;37.45;;;;;;;-1.71;100.00;99799.47;5051447;28;20068;-89
2021/12/20 02:51:32;;;;;;;67.05;37.97;;;;;;;-1.69;100.00;99795.91;5030473;28;20485;-87
2021/12/20 02:53:59;;;;;;;72.75;38.38;;;;;;;-1.67;100.00;99785.50;5016463;28;20112;-89
2021/12/20 02:56:25;;;;;;;66.13;38.92;;;;;;;-1.64;100.00;99790.53;5052016;28;20821;-88
2021/12/20 02:58:52;;;;;;;68.28;38.65;;;;;;;-1.61;100.00;99795.59;5032466;28;20037;-89
2021/12/20 03:01:19;;;;;;;69.00;38.88;;;;;;;-1.61;100.00;99785.25;5030831;28;20049;-90
2021/12/20 03:03:46;;;;;;;64.32;37.45;;;;;;;-1.62;100.00;99793.91;5048937;28;20422;-89
2021/12/20 03:06:23;;;;;;;70.63;36.40;;;;;;;-1.68;100.00;99786.38;5051452;28;20477;-87
2021/12/20 03:08:51;;;;;;;67.90;36.25;;;;;;;-1.79;100.00;99775.63;5012093;28;20370;-88
2021/12/20 03:11:18;;;;;;;62.05;35.25;;;;;;;-1.95;100.00;99769.38;5030173;28;20504;-88
2021/12/20 03:13:47;;;;;;;67.75;36.95;;;;;;;-2.08;100.00;99769.84;5030711;28;20342;-87
2021/12/20 03:16:13;;;;;;;57.28;35.33;;;;;;;-2.10;100.00;99774.22;5009621;28;20040;-87
2021/12/20 03:18:38;;;;;;;65.95;34.58;;;;;;;-2.07;100.00;99766.38;5051892;28;20025;-88
2021/12/20 03:21:03;;;;;;;57.13;33.90;;;;;;;-2.02;100.00;99762.75;5051417;28;20048;-88
2021/12/20 03:23:29;;;;;;;64.03;33.33;;;;;;;-2.07;100.00;99763.78;5030085;28;20235;-87
2021/12/20 03:25:55;;;;;;;57.33;32.03;;;;;;;-2.17;100.00;99761.56;5015642;28;20474;-88
2021/12/20 03:28:21;;;;;;;59.20;32.70;;;;;;;-2.23;100.00;99765.25;5030184;28;20037;-87
2021/12/20 03:30:47;;;;;;;57.50;34.13;;;;;;;-2.26;100.00;99749.88;5048768;28;20029;-86
2021/12/20 03:33:12;;;;;;;58.35;31.88;;;;;;;-2.27;100.00;99752.50;5013996;28;20473;-88
2021/12/20 03:35:38;;;;;;;56.08;32.20;;;;;;;-2.28;100.00;99754.22;5030025;28;20029;-87
2021/12/20 03:38:04;;;;;;;56.47;31.33;;;;;;;-2.35;100.00;99747.59;5033630;28;20100;-87
2021/12/20 03:40:29;;;;;;;59.33;32.25;;;;;;;-2.41;100.00;99749.56;5030459;28;20592;-86
2021/12/20 03:42:55;;;;;;;52.60;31.38;;;;;;;-2.43;100.00;99747.06;5033594;28;20501;-88
2021/12/20 03:45:21;;;;;;;54.00;32.50;;;;;;;-2.45;100.00;99733.34;5037078;28;20029;-88
2021/12/20 03:47:46;;;;;;;58.47;33.38;;;;;;;-2.45;100.00;99727.34;5041279;28;20029;-88
2021/12/20 03:50:13;;;;;;;61.08;33.50;;;;;;;-2.45;100.00;99733.34;5078027;28;20044;-88
2021/12/20 03:52:39;;;;;;;56.35;32.65;;;;;;;-2.47;100.00;99729.16;5041967;28;20029;-88
2021/12/20 03:55:06;;;;;;;54.90;33.47;;;;;;;-2.47;100.00;99724.81;5045577;28;20103;-88
2021/12/20 03:57:33;;;;;;;60.25;34.75;;;;;;;-2.48;100.00;99723.16;5054415;28;20053;-89
2021/12/20 03:59:59;;;;;;;62.70;34.60;;;;;;;-2.47;100.00;99705.91;5068103;28;20029;-89
2021/12/20 04:02:26;;;;;;;62.42;34.10;;;;;;;-2.47;100.00;99718.81;5049270;28;20438;-88
2021/12/20 04:04:51;;;;;;;62.13;34.78;;;;;;;-2.46;100.00;99700.66;5055535;28;20033;-87
2021/12/20 04:07:17;;;;;;;64.57;35.40;;;;;;;-2.43;100.00;99700.56;5036630;28;20084;-90
2021/12/20 04:09:43;;;;;;;63.40;34.67;;;;;;;-2.44;100.00;99696.28;5054442;28;20060;-88
2021/12/20 04:12:09;;;;;;;63.47;35.83;;;;;;;-2.51;100.00;99697.41;5065197;28;20036;-88
2021/12/20 04:14:35;;;;;;;67.55;35.70;;;;;;;-2.56;100.00;99691.56;5061241;28;20041;-88
2021/12/20 04:17:01;;;;;;;63.72;34.60;;;;;;;-2.57;100.00;99698.47;5038455;28;20036;-88
2021/12/20 04:19:26;;;;;;;60.63;34.63;;;;;;;-2.61;100.00;99703.81;5035139;28;20382;-87
2021/12/20 04:21:52;;;;;;;68.97;34.40;;;;;;;-2.64;100.00;99701.34;5036493;28;20025;-88
2021/12/20 04:24:17;;;;;;;60.45;34.53;;;;;;;-2.66;100.00;99682.50;5058080;28;20029;-85
2021/12/20 04:26:43;;;;;;;63.05;35.70;;;;;;;-2.63;100.00;99695.28;5020860;28;20060;-88
2021/12/20 04:29:09;;;;;;;71.93;37.58;;;;;;;-2.58;100.00;99685.63;5052786;28;20115;-86
2021/12/20 04:31:35;;;;;;;63.30;36.65;;;;;;;-2.54;100.00;99682.03;5059865;28;20045;-87
2021/12/20 04:34:01;;;;;;;66.18;37.20;;;;;;;-2.49;100.00;99682.69;5061610;28;20083;-87
2021/12/20 04:36:28;;;;;;;68.22;37.30;;;;;;;-2.47;100.00;99683.47;5061689;28;20025;-89
2021/12/20 04:38:53;;;;;;;70.78;39.10;;;;;;;-2.45;100.00;99686.00;5043570;28;20068;-89
2021/12/20 04:41:19;;;;;;;62.67;35.25;;;;;;;-2.42;100.00;99686.75;5062585;28;20568;-88
2021/12/20 04:43:44;;;;;;;64.75;35.47;;;;;;;-2.41;100.00;99682.38;5034565;28;20543;-87
2021/12/20 04:46:10;;;;;;;70.05;38.30;;;;;;;-2.52;100.00;99683.66;5033873;28;20032;-88
2021/12/20 04:48:35;;;;;;;63.75;36.13;;;;;;;-2.52;100.00;99682.81;5049662;28;20389;-87
2021/12/20 04:51:01;;;;;;;71.30;36.97;;;;;;;-2.53;100.00;99691.44;5019127;28;20473;-86
2021/12/20 04:53:28;;;;;;;60.92;35.25;;;;;;;-2.59;100.00;99686.53;5016694;28;20076;-87
2021/12/20 04:55:53;;;;;;;69.57;36.38;;;;;;;-2.66;100.00;99688.50;5034292;28;20021;-88
2021/12/20 04:58:19;;;;;;;66.30;35.22;;;;;;;-2.71;100.00;99694.75;5016220;28;20116;-88
2021/12/20 05:00:45;;;;;;;62.70;37.15;;;;;;;-2.73;100.00;99681.03;5050632;28;20059;-87
2021/12/20 05:03:11;;;;;;;65.07;37.60;;;;;;;-2.68;100.00;99689.44;5053685;28;20040;-88
2021/12/20 05:05:36;;;;;;;64.43;36.72;;;;;;;-2.61;100.00;99685.75;5010254;28;20045;-88
2021/12/20 05:08:03;;;;;;;66.90;37.95;;;;;;;-2.52;100.00;99688.81;4999673;28;20117;-87
2021/12/20 05:10:33;;;;;;;68.55;37.38;;;;;;;-2.50;100.00;99688.75;5040687;28;20493;-88
2021/12/20 05:13:02;;;;;;;65.40;36.95;;;;;;;-2.46;100.00;99685.16;5000895;28;20044;-88
2021/12/20 05:15:28;;;;;;;68.30;38.47;;;;;;;-2.41;100.00;99685.81;5033220;28;20108;-87
2021/12/20 05:17:55;;;;;;;61.17;36.08;;;;;;;-2.38;100.00;99688.31;5040527;28;20294;-87
2021/12/20 05:20:20;;;;;;;70.93;35.63;;;;;;;-2.34;100.00;99689.84;5015994;28;20041;-87
2021/12/20 05:22:47;;;;;;;58.58;33.95;;;;;;;-2.33;100.00;99685.53;5001008;28;20033;-87
2021/12/20 05:25:13;;;;;;;65.10;35.45;;;;;;;-2.35;100.00;99684.72;5010168;28;20402;-88
2021/12/20 05:27:38;;;;;;;63.20;36.63;;;;;;;-2.35;100.00;99688.16;5001529;28;20030;-88
2021/12/20 05:30:06;;;;;;;58.70;33.55;;;;;;;-2.37;100.00;99684.81;5025287;28;20045;-88
2021/12/20 05:32:31;;;;;;;65.25;36.13;;;;;;;-2.37;100.00;99690.00;5005479;28;20029;-87
2021/12/20 05:35:00;;;;;;;70.07;35.22;;;;;;;-2.45;100.00;99676.50;4991963;28;20029;-87
2021/12/20 05:37:27;;;;;;;65.45;35.40;;;;;;;-2.48;100.00;99686.97;5006725;28;20095;-86
2021/12/20 05:39:54;;;;;;;60.80;35.88;;;;;;;-2.55;100.00;99678.63;5005455;28;20041;-89
2021/12/20 05:42:19;;;;;;;67.93;36.78;;;;;;;-2.58;100.00;99685.63;5004665;28;20056;-90
2021/12/20 05:44:45;;;;;;;60.97;35.58;;;;;;;-2.55;100.00;99682.94;5004676;28;20474;-88
2021/12/20 05:47:10;;;;;;;63.88;37.97;;;;;;;-2.53;100.00;99683.69;5003872;28;20041;-87
2021/12/20 05:49:38;;;;;;;65.07;37.05;;;;;;;-2.54;100.00;99682.03;5026697;28;20021;-88
2021/12/20 05:52:03;;;;;;;69.32;37.20;;;;;;;-2.59;100.00;99683.97;5005324;28;20424;-89
2021/12/20 05:54:32;;;;;;;66.15;36.70;;;;;;;-2.62;100.00;99695.22;4990214;28;20091;-89
2021/12/20 05:56:58;;;;;;;65.07;36.50;;;;;;;-2.65;100.00;99697.09;4997901;28;20101;-89
2021/12/20 05:59:24;;;;;;;64.03;37.20;;;;;;;-2.65;100.00;99689.34;4999435;28;20068;-90
2021/12/20 06:01:49;;;;;;;60.83;35.22;;;;;;;-2.64;100.00;99696.19;5024678;28;20029;-88
2021/12/20 06:04:15;;;;;;;69.18;38.33;;;;;;;-2.69;100.00;99688.59;5038656;28;20025;-86
2021/12/20 06:06:40;;;;;;;67.35;35.88;;;;;;;-2.70;100.00;99691.25;5050590;28;20064;-84
2021/12/20 06:09:06;;;;;;;60.83;33.58;;;;;;;-2.68;100.00;99704.94;5054820;28;20018;-89
2021/12/20 06:11:32;;;;;;;57.80;34.28;;;;;;;-2.66;100.00;99698.00;5055441;28;20044;-87
2021/12/20 06:13:58;;;;;;;65.05;34.80;;;;;;;-2.68;100.00;99694.63;5037309;28;20029;-87
2021/12/20 06:16:24;;;;;;;61.45;34.05;;;;;;;-2.65;100.00;99699.69;5032284;28;20092;-87
2021/12/20 06:18:51;;;;;;;64.85;33.78;;;;;;;-2.72;100.00;99698.22;5031531;28;20122;-81
2021/12/20 06:21:18;;;;;;;57.22;33.08;;;;;;;-2.71;100.00;99689.59;5031667;28;20037;-86
2021/12/20 06:23:44;;;;;;;66.60;35.45;;;;;;;-2.71;100.00;99689.59;5014996;28;20036;-82
2021/12/20 06:26:09;;;;;;;64.95;33.67;;;;;;;-2.69;100.00;99687.75;4680697;28;10000599;-87
2021/12/20 06:28:35;;;;;;;58.25;32.30;;;;;;;-2.69;100.00;99687.75;5020800;28;20502;-87
2021/12/20 06:31:01;;;;;;;59.97;33.85;;;;;;;-2.68;100.00;99689.44;5019142;28;20030;-86
2021/12/20 06:33:26;;;;;;;63.05;34.45;;;;;;;-2.75;100.00;99688.00;5020310;28;20029;-88
2021/12/20 06:35:53;;;;;;;57.20;34.50;;;;;;;-2.83;100.00;99690.03;5023996;28;20025;-85
2021/12/20 06:38:20;;;;;;;53.83;33.92;;;;;;;-3.00;100.00;99685.44;5019840;28;20034;-87
2021/12/20 06:40:47;;;;;;;62.08;34.22;;;;;;;-3.10;100.00;99684.94;5021307;28;20478;-88
2021/12/20 06:43:13;;;;;;;66.53;35.88;;;;;;;-3.15;100.00;99686.00;5018328;28;20037;-87
2021/12/20 06:45:41;;;;;;;61.25;32.65;;;;;;;-3.11;100.00;99679.81;5023136;28;20039;-88
2021/12/20 06:48:07;;;;;;;62.80;32.42;;;;;;;-3.04;100.00;99687.31;5026209;28;20536;-86
2021/12/20 06:50:33;;;;;;;62.17;33.03;;;;;;;-2.98;100.00;99687.09;5022621;28;20397;-87
2021/12/20 06:52:59;;;;;;;65.82;35.88;;;;;;;-2.90;100.00;99690.25;5020398;28;20125;-88
2021/12/20 06:55:25;;;;;;;67.07;33.80;;;;;;;-2.83;100.00;99683.13;5029267;28;20037;-87
2021/12/20 06:57:51;;;;;;;58.63;33.55;;;;;;;-2.78;100.00;99668.31;4664691;28;10000215;-84
2021/12/20 07:00:16;;;;;;;62.50;36.03;;;;;;;-2.79;100.00;99676.09;5031401;28;20037;-84
2021/12/20 07:02:42;;;;;;;60.88;35.20;;;;;;;-2.84;100.00;99678.00;5031900;28;20444;-85
2021/12/20 07:05:08;;;;;;;67.03;36.88;;;;;;;-2.82;100.00;99686.53;5034030;28;20389;-84
2021/12/20 07:07:34;;;;;;;59.33;34.42;;;;;;;-2.82;100.00;99671.03;5034024;28;20033;-83
2021/12/20 07:10:02;;;;;;;68.97;35.33;;;;;;;-2.80;100.00;99679.56;5051363;28;20032;-84
2021/12/20 07:12:29;;;;;;;63.20;36.03;;;;;;;-2.80;100.00;99685.59;5031953;28;20908;-83
2021/12/20 07:14:54;;;;;;;56.50;34.05;;;;;;;-2.80;100.00;99684.72;5051064;28;20037;-81
2021/12/20 07:17:20;;;;;;;63.85;34.38;;;;;;;-2.99;100.00;99680.25;5032903;28;20044;-83
2021/12/20 07:19:46;;;;;;;58.15;33.78;;;;;;;-3.01;100.00;99682.06;5049992;28;20040;-83
2021/12/20 07:22:12;;;;;;;53.55;33.08;;;;;;;-3.07;100.00;99687.44;5050398;28;20029;-83
2021/12/20 07:24:38;;;;;;;60.25;33.72;;;;;;;-3.10;100.00;99687.53;5051108;28;20056;-83
2021/12/20 07:27:04;;;;;;;64.82;34.53;;;;;;;-3.10;100.00;99691.84;5032929;28;20112;-83
2021/12/20 07:29:29;;;;;;;54.10;32.28;;;;;;;-3.08;100.00;99680.59;5050283;28;20048;-83
2021/12/20 07:31:55;;;;;;;59.17;33.17;;;;;;;-3.02;100.00;99690.69;5050955;28;20029;-83
2021/12/20 07:34:21;;;;;;;54.75;33.05;;;;;;;-3.07;100.00;99682.28;5050114;28;20626;-83
2021/12/20 07:36:46;;;;;;;57.95;34.10;;;;;;;-3.02;100.00;99690.69;5050584;28;20033;-83
2021/12/20 07:39:12;;;;;;;62.35;34.00;;;;;;;-2.94;100.00;99688.66;5050701;28;20122;-83
2021/12/20 07:41:37;;;;;;;60.22;33.63;;;;;;;-2.89;100.00;99688.50;5051055;28;20492;-83
2021/12/20 07:44:03;;;;;;;59.83;33.63;;;;;;;-2.88;100.00;99697.91;5032904;28;20036;-83
2021/12/20 07:46:28;;;;;;;62.13;34.80;;;;;;;-2.81;100.00;99688.22;5050654;28;20040;-83
2021/12/20 07:48:54;;;;;;;58.60;33.65;;;;;;;-2.70;100.00;99696.41;5051062;28;20040;-83
2021/12/20 07:51:22;;;;;;;59.53;34.45;;;;;;;-2.60;100.00;99703.78;5050448;28;20045;-83
2021/12/20 07:53:48;;;;;;;59.63;34.45;;;;;;;-2.53;100.00;99694.03;5051415;28;20041;-83
2021/12/20 07:56:14;;;;;;;55.95;31.70;;;;;;;-2.56;100.00;99687.25;5052511;28;20021;-83
2021/12/20 07:58:39;;;;;;;55.50;34.13;;;;;;;-2.52;100.00;99698.31;5063204;28;20021;-83
2021/12/20 08:01:06;;;;;;;54.05;32.33;;;;;;;-2.51;100.00;99702.56;5051629;28;20033;-83
2021/12/20 08:03:34;;;;;;;59.05;32.20;;;;;;;-2.40;100.00;99690.09;5053683;28;20021;-84
2021/12/20 08:06:00;;;;;;;55.05;33.15;;;;;;;-2.33;100.00;99695.88;5047197;28;20041;-81
2021/12/20 08:08:26;;;;;;;53.25;31.98;;;;;;;-2.32;100.00;99693.22;5051939;28;20068;-80
2021/12/20 08:10:51;;;;;;;57.92;32.45;;;;;;;-2.33;100.00;99696.72;5023092;28;20076;-79
2021/12/20 08:13:17;;;;;;;55.15;33.03;;;;;;;-2.29;100.00;99703.44;5036107;28;20037;-80
2021/12/20 08:15:42;;;;;;;62.63;35.85;;;;;;;-2.20;100.00;99708.28;5036600;28;20026;-81
2021/12/20 08:18:08;;;;;;;63.17;33.63;;;;;;;-2.13;100.00;99704.56;5025551;28;20029;-81
2021/12/20 08:20:34;;;;;;;54.15;31.15;;;;;;;-2.02;100.00;99705.88;5041359;28;20400;-80
2021/12/20 08:23:01;;;;;;;57.58;33.08;;;;;;;-1.90;100.00;99697.63;5039941;28;20036;-82
2021/12/20 08:25:27;;;;;;;50.03;30.52;;;;;;;-1.82;100.00;99690.38;5040999;28;20033;-79
2021/12/20 08:27:53;;;;;;;64.97;33.33;;;;;;;-1.82;100.00;99698.13;5030315;28;20362;-80
2021/12/20 08:30:21;;;;;;;60.67;31.85;;;;;;;-1.82;100.00;99698.13;5042552;28;20029;-83
2021/12/20 08:32:47;;;;;;;54.92;31.60;;;;;;;-1.75;100.00;99697.84;5044878;28;20112;-80
2021/12/20 08:35:15;;;;;;;52.25;32.10;;;;;;;-1.64;100.00;99697.38;5043691;28;20108;-82
2021/12/20 08:37:42;;;;;;;55.88;33.05;;;;;;;-1.58;100.00;99691.97;5047070;28;20030;-80
2021/12/20 08:40:11;;;;;;;55.47;32.58;;;;;;;-1.55;100.00;99689.25;5045784;28;20029;-83
2021/12/20 08:42:38;;;;;;;61.55;33.58;;;;;;;-1.49;100.00;99689.00;5009479;28;20036;-83
2021/12/20 08:45:05;;;;;;;55.97;34.03;;;;;;;-1.46;100.00;99686.28;5046946;28;20481;-82
2021/12/20 08:47:32;;;;;;;59.60;35.67;;;;;;;-1.44;100.00;99687.06;5018755;28;20416;-80
2021/12/20 08:50:00;;;;;;;63.78;34.72;;;;;;;-1.42;100.00;99682.66;5036110;28;20120;-83
2021/12/20 08:52:26;;;;;;;54.38;33.95;;;;;;;-1.38;100.00;99679.03;5035820;28;20047;-81
2021/12/20 08:54:52;;;;;;;63.08;36.75;;;;;;;-1.32;100.00;99677.94;5053376;28;20025;-81
2021/12/20 08:57:17;;;;;;;64.88;36.17;;;;;;;-1.26;100.00;99673.34;5053270;28;20535;-82
2021/12/20 08:59:43;;;;;;;58.22;34.97;;;;;;;-1.15;100.00;99674.59;5053566;28;20064;-81
2021/12/20 09:02:10;;;;;;;60.80;35.63;;;;;;;-1.04;100.00;99677.56;5033961;28;20090;-81
2021/12/20 09:04:36;;;;;;;62.83;35.28;;;;;;;-0.98;100.00;99687.66;5052175;28;20401;-81
2021/12/20 09:07:03;;;;;;;66.80;39.45;;;;;;;-0.89;100.00;99697.63;5053035;28;20353;-81
2021/12/20 09:09:35;;;;;;;67.90;37.10;;;;;;;-0.78;100.00;99700.59;5034876;28;20392;-81
2021/12/20 09:12:01;;;;;;;65.15;38.38;;;;;;;-0.67;100.00;99698.34;5052795;28;20037;-81
2021/12/20 09:14:28;;;;;;;64.18;38.17;;;;;;;-0.60;100.00;99698.91;5052465;28;20036;-81
2021/12/20 09:16:54;;;;;;;66.85;38.95;;;;;;;-0.54;100.00;99689.13;5051589;28;20029;-80
2021/12/20 09:19:19;;;;;;;65.28;37.55;;;;;;;-0.49;100.00;99684.56;5052367;28;20116;-81
2021/12/20 09:21:48;;;;;;;62.72;37.85;;;;;;;-0.41;100.00;99684.19;5035411;28;20477;-81
2021/12/20 09:24:13;;;;;;;62.97;37.08;;;;;;;-0.31;100.00;99689.81;5053103;28;20025;-80
2021/12/20 09:26:39;;;;;;;62.00;38.03;;;;;;;-0.24;100.00;99697.22;5054365;28;20096;-81
2021/12/20 09:29:05;;;;;;;65.15;36.97;;;;;;;-0.13;100.00;99712.28;5036881;28;20036;-83
2021/12/20 09:31:31;;;;;;;66.18;37.85;;;;;;;-0.02;100.00;99702.25;5041670;28;20045;-82
2021/12/20 09:33:58;;;;;;;63.63;39.70;;;;;;;0.08;100.00;99700.88;5058430;28;20163;-82
2021/12/20 09:36:28;;;;;;;62.88;37.67;;;;;;;0.15;100.00;99689.28;5041731;28;20024;-79
2021/12/20 09:38:55;;;;;;;63.40;37.58;;;;;;;0.24;100.00;99688.84;5060267;28;20037;-79
2021/12/20 09:41:59;;;;;;;64.32;38.17;;;;;;;0.34;100.00;99695.28;5043006;28;20112;-80
2021/12/20 09:44:11;;;;;;;62.63;37.45;;;;;;;0.48;100.00;99691.13;5059899;28;20535;-82
2021/12/20 09:46:37;;;;;;;67.25;37.67;;;;;;;0.60;100.00;99693.97;5061730;28;20039;-80
2021/12/20 09:49:05;;;;;;;60.13;36.40;;;;;;;0.73;100.00;99691.59;5045486;28;20041;-81
2021/12/20 09:51:30;;;;;;;64.60;36.42;;;;;;;0.84;100.00;99684.09;5060571;28;20124;-80
2021/12/20 09:53:56;;;;;;;61.30;34.95;;;;;;;0.95;100.00;99676.56;5058877;28;20101;-80
2021/12/20 09:56:25;;;;;;;57.70;35.53;;;;;;;1.09;100.00;99678.47;5075473;28;20037;-80
2021/12/20 09:58:53;;;;;;;55.70;34.67;;;;;;;1.19;100.00;99680.50;5074615;28;20047;-81
2021/12/20 10:01:20;;;;;;;57.25;34.50;;;;;;;1.33;100.00;99686.72;5064948;28;20040;-81
2021/12/20 10:03:46;;;;;;;51.78;32.58;;;;;;;1.46;100.00;99677.38;5064226;28;20025;-79
2021/12/20 10:06:12;;;;;;;53.47;32.90;;;;;;;1.58;100.00;99677.53;5036589;28;20071;-81
2021/12/20 10:08:48;;;;;;;55.67;34.88;;;;;;;1.69;100.00;99679.56;5052749;28;20025;-80
2021/12/20 10:11:25;;;;;;;54.10;33.33;;;;;;;1.78;100.00;99673.81;5034779;28;20043;-80
2021/12/20 10:14:11;;;;;;;56.88;33.28;;;;;;;1.91;100.00;99671.38;5034356;28;20048;-81
2021/12/20 10:16:38;;;;;;;52.95;32.50;;;;;;;2.05;100.00;99672.31;5052249;28;20021;-82
2021/12/20 10:19:09;;;;;;;50.58;31.17;;;;;;;2.20;100.00;99664.53;5034209;28;20041;-80
2021/12/20 10:21:40;;;;;;;57.45;33.03;;;;;;;2.33;100.00;99660.31;5033428;28;20124;-80
2021/12/20 10:24:06;;;;;;;50.13;31.45;;;;;;;2.44;100.00;99657.91;5051747;28;20036;-81
2021/12/20 10:26:42;;;;;;;51.45;31.52;;;;;;;2.58;100.00;99659.72;5051380;28;20033;-82
2021/12/20 10:29:19;;;;;;;55.83;31.55;;;;;;;2.67;100.00;99644.38;5051270;28;20454;-82
2021/12/20 10:31:46;;;;;;;47.92;30.08;;;;;;;2.77;100.00;99639.44;5048146;28;20021;-82
2021/12/20 10:34:13;;;;;;;50.88;31.30;;;;;;;-144.47;100.00;61586.06;5051450;28;20509;-82
2021/12/20 10:36:59;;;;;;;50.88;31.42;;;;;;;-144.47;100.00;61586.06;5051113;28;20029;-81
2021/12/20 10:39:37;;;;;;;51.25;32.33;;;;;;;-144.47;100.00;61586.06;5022497;28;20397;-80
2021/12/20 10:42:39;;;;;;;55.80;35.40;;;;;;;-144.47;100.00;61586.06;5051081;28;20056;-81
2021/12/20 10:45:18;;;;;;;58.67;33.90;;;;;;;-144.47;100.00;61586.06;5037122;28;20056;-82
2021/12/20 10:47:44;;;;;;;55.00;34.08;;;;;;;-144.47;100.00;61586.06;5051498;28;20142;-82
2021/12/20 10:50:34;;;;;;;49.42;31.88;;;;;;;-144.47;100.00;61586.06;5050605;28;20040;-82
2021/12/20 10:53:22;;;;;;;51.40;31.02;;;;;;;-144.47;100.00;61586.06;5049325;28;20029;-82
2021/12/20 10:55:55;;;;;;;55.70;33.45;;;;;;;-144.47;100.00;61586.06;5024343;28;20033;-82
2021/12/20 10:58:30;;;;;;;55.30;34.58;;;;;;;-144.47;100.00;61586.06;5050429;28;20082;-81
2021/12/20 11:01:36;;;;;;;57.90;36.33;;;;;;;-144.47;100.00;61586.06;5033044;28;20493;-82
2021/12/20 11:04:10;;;;;;;56.60;33.33;;;;;;;-144.47;100.00;61586.06;5050306;28;20033;-82
2021/12/20 11:09:15;;;;;;;45.83;30.17;;;;;;;-144.47;100.00;61586.06;5046029;28;20104;-81
2021/12/20 11:11:45;;;;;;;48.85;30.35;;;;;;;-144.47;100.00;61586.06;5028744;28;20334;-80
2021/12/20 11:14:11;;;;;;;48.28;30.45;;;;;;;-144.47;100.00;61586.06;5042128;28;20090;-81
2021/12/20 11:16:39;;;;;;;50.10;30.80;;;;;;;-144.47;100.00;61586.06;5050344;28;20033;-81
2021/12/20 11:19:15;;;;;;;45.60;28.25;;;;;;;-144.47;100.00;61586.06;5050117;28;20365;-81
2021/12/20 11:21:53;;;;;;;37.80;25.08;;;;;;;-144.47;100.00;61586.06;5004332;28;20086;-80
2021/12/20 11:24:26;;;;;;;28.88;19.60;;;;;;;-144.47;100.00;61586.06;5050202;28;20068;-81
2021/12/20 11:26:52;;;;;;;31.27;21.00;;;;;;;-144.47;100.00;61586.06;5050412;28;20047;-80
2021/12/20 11:29:19;;;;;;;30.20;19.45;;;;;;;-144.47;100.00;61586.06;5049957;28;20036;-81
2021/12/20 11:31:45;;;;;;;27.77;19.58;;;;;;;-144.47;100.00;61586.06;5050337;28;20390;-82
2021/12/20 11:34:11;;;;;;;28.77;19.20;;;;;;;-144.47;100.00;61586.06;5046027;28;20515;-80
2021/12/20 11:36:36;;;;;;;22.95;16.85;;;;;;;-144.47;100.00;61586.06;5050898;28;20063;-81